Time;durP1;ratioP1;P1;durP2;ratioP2;P2;SDS_P1;SDS_P2;PMS_P1;PMS_P2;Temp;Humidity;BMP_temperature;BMP_pressure;BME280_temperature;BME280_humidity;BME280_pressure;Samples;Min_cycle;Max_cycle;Signal;HPM_P1;HPM_P2
2023/02/10 05:49:00;;;;;;;16.10;5.50;;;;;;;-4.10;48.59;102210.16;101978;1292;616232;-72
2023/02/10 05:51:27;;;;;;;12.10;4.20;;;;;;;-3.97;48.30;102207.72;104696;1267;61104;-73
2023/02/10 05:53:54;;;;;;;9.90;4.10;;;;;;;-3.94;48.22;102206.04;104441;1266;61219;-71
2023/02/10 05:56:21;;;;;;;13.00;4.60;;;;;;;-3.92;48.07;102206.92;104451;1270;73062;-72
2023/02/10 05:58:48;;;;;;;11.60;4.20;;;;;;;-3.88;48.00;102201.10;105088;1267;71489;-73
2023/02/10 06:01:15;;;;;;;9.40;3.30;;;;;;;-3.86;47.90;102197.70;104320;1267;252027;-74
2023/02/10 06:03:42;;;;;;;10.80;4.60;;;;;;;-3.86;47.96;102199.42;104707;1264;61234;-74
2023/02/10 06:06:09;;;;;;;10.20;4.30;;;;;;;-3.84;47.87;102194.96;104887;1266;61354;-73
2023/02/10 06:08:38;;;;;;;10.00;3.10;;;;;;;-3.82;47.95;102192.59;104753;1264;73172;-73
2023/02/10 06:11:05;;;;;;;11.50;4.90;;;;;;;-3.79;47.74;102185.59;104779;1267;71074;-71
2023/02/10 06:13:32;;;;;;;9.30;3.60;;;;;;;-3.77;47.51;102184.06;104669;1263;73451;-71
2023/02/10 06:16:01;;;;;;;11.70;4.80;;;;;;;-3.76;47.54;102184.59;104728;1264;61453;-74
2023/02/10 06:18:29;;;;;;;10.80;3.50;;;;;;;-3.75;47.59;102186.83;104625;1264;61746;-69
2023/02/10 06:20:56;;;;;;;12.20;4.10;;;;;;;-3.74;47.48;102189.40;104626;1267;74314;-74
2023/02/10 06:23:24;;;;;;;11.30;4.30;;;;;;;-3.74;47.39;102187.01;104784;1267;71243;-70
2023/02/10 06:25:54;;;;;;;10.10;5.00;;;;;;;-3.75;47.33;102183.39;104954;1268;73687;-73
2023/02/10 06:28:22;;;;;;;8.90;4.20;;;;;;;-3.76;47.35;102186.30;104690;1267;61232;-72
2023/02/10 06:30:50;;;;;;;11.90;5.40;;;;;;;-3.78;47.21;102186.64;104788;1267;60198;-73
2023/02/10 06:33:17;;;;;;;8.40;3.60;;;;;;;-3.77;47.06;102189.37;104565;1269;73880;-80
2023/02/10 06:35:44;;;;;;;15.80;6.60;;;;;;;-3.76;47.03;102182.86;104608;1267;71182;-69
2023/02/10 06:38:11;;;;;;;12.80;4.20;;;;;;;-3.77;47.01;102176.69;104659;1267;73622;-71
2023/02/10 06:40:38;;;;;;;11.20;5.10;;;;;;;-3.77;46.93;102178.39;104942;1266;60338;-69
2023/02/10 06:43:05;;;;;;;10.70;4.20;;;;;;;-3.76;47.10;102176.35;104996;1269;60974;-72
2023/02/10 06:45:33;;;;;;;7.10;3.10;;;;;;;-3.74;47.02;102169.00;104687;1268;73995;-72
2023/02/10 06:48:00;;;;;;;10.70;5.20;;;;;;;-3.71;46.98;102165.23;104800;1263;71276;-69
2023/02/10 06:50:27;;;;;;;9.80;4.80;;;;;;;-3.66;47.07;102154.48;105736;1266;74440;-71
2023/02/10 06:52:54;;;;;;;10.10;3.50;;;;;;;-3.60;46.86;102149.88;105077;1264;61398;-68
2023/02/10 06:55:21;;;;;;;10.80;5.50;;;;;;;-3.55;46.76;102147.35;104949;1263;61256;-69
2023/02/10 06:57:49;;;;;;;11.00;4.70;;;;;;;-3.51;46.45;102153.73;105111;1266;73652;-75
2023/02/10 07:00:16;;;;;;;10.70;4.60;;;;;;;-3.49;46.46;102154.08;105224;1261;70959;-72
2023/02/10 07:02:43;;;;;;;14.50;6.70;;;;;;;-3.46;46.38;102153.23;105081;1263;73689;-73
2023/02/10 07:05:10;;;;;;;14.00;5.90;;;;;;;-3.41;46.38;102148.80;104805;1266;60389;-74
2023/02/10 07:07:38;;;;;;;15.30;5.50;;;;;;;-3.36;46.25;102146.10;104828;1263;61258;-71
2023/02/10 07:10:05;;;;;;;13.00;4.60;;;;;;;-3.32;46.32;102148.02;104986;1263;72457;-71
2023/02/10 07:12:34;;;;;;;10.60;4.90;;;;;;;-3.24;46.20;102144.95;104785;1264;71586;-71
2023/02/10 07:15:01;;;;;;;10.40;3.80;;;;;;;-3.15;45.96;102139.85;104890;1263;73400;-70
2023/02/10 07:35:32;;;;;;;14.10;5.30;;;;;;;-2.14;44.01;102129.77;102679;1285;606462;-51
2023/02/10 07:37:59;;;;;;;11.80;5.90;;;;;;;-1.69;42.91;102126.73;104580;1267;117288;-53
2023/02/10 07:40:28;;;;;;;14.20;6.30;;;;;;;-1.71;43.07;102129.32;104568;1269;61001;-53
2023/02/10 07:42:56;;;;;;;11.40;4.70;;;;;;;-1.71;43.00;102138.09;104632;1270;72898;-53
2023/02/10 07:45:36;;;;;;;11.20;5.40;;;;;;;-1.72;43.28;102139.29;104723;1269;71330;-53
2023/02/10 07:48:03;;;;;;;16.00;5.50;;;;;;;-1.69;43.28;102143.95;104598;1266;73681;-55
2023/02/10 07:50:29;;;;;;;15.10;6.20;;;;;;;-1.67;43.21;102140.16;104725;1267;61394;-53
2023/02/10 07:53:00;;;;;;;12.00;5.30;;;;;;;-1.64;43.24;102136.54;104927;1265;60071;-53
2023/02/10 07:55:28;;;;;;;13.90;6.90;;;;;;;-1.60;42.93;102133.77;105266;1264;72999;-54
2023/02/10 07:57:55;;;;;;;12.30;6.10;;;;;;;-1.60;43.10;102124.84;104803;1263;71206;-53
2023/02/10 08:00:22;;;;;;;13.10;4.20;;;;;;;-1.55;43.36;102114.15;104884;1267;73987;-53
2023/02/10 08:02:49;;;;;;;11.20;5.20;;;;;;;-1.47;43.43;102103.30;105210;1263;60419;-53
2023/02/10 08:05:17;;;;;;;9.50;4.00;;;;;;;-1.39;43.40;102091.92;105035;1262;61240;-54
2023/02/10 08:07:43;;;;;;;12.70;6.10;;;;;;;-1.29;43.36;102095.67;104869;1266;73894;-53
2023/02/10 08:10:12;;;;;;;14.60;5.60;;;;;;;-1.21;43.15;102106.65;105030;1267;70746;-54
2023/02/10 08:12:39;;;;;;;16.00;6.10;;;;;;;-1.15;42.84;102108.02;104922;1267;73290;-53
2023/02/10 08:15:07;;;;;;;11.30;5.40;;;;;;;-1.10;42.88;102099.23;105034;1264;61235;-52
2023/02/10 08:17:38;;;;;;;13.30;4.60;;;;;;;-1.01;42.77;102090.73;105002;1267;61127;-54
2023/02/10 08:20:06;;;;;;;11.30;5.50;;;;;;;-0.93;42.59;102082.61;104922;1264;73001;-52
2023/02/10 08:22:34;;;;;;;12.30;5.80;;;;;;;-0.87;42.61;102091.20;105165;1266;70235;-53
2023/02/10 08:25:01;;;;;;;13.50;6.00;;;;;;;-0.83;42.54;102081.70;105001;1262;73015;-53
2023/02/10 08:27:28;;;;;;;10.70;5.40;;;;;;;-0.80;42.44;102078.22;104916;1263;61358;-53
2023/02/10 08:29:55;;;;;;;12.30;5.60;;;;;;;-0.76;42.60;102091.48;105013;1262;60990;-54
2023/02/10 08:32:23;;;;;;;10.80;5.10;;;;;;;-0.71;42.45;102090.77;104990;1267;73808;-53
2023/02/10 08:34:51;;;;;;;16.70;6.60;;;;;;;-0.68;42.42;102082.98;104952;1264;70953;-54
2023/02/10 08:37:18;;;;;;;10.10;4.00;;;;;;;-0.64;42.78;102085.55;104984;1264;75201;-51
2023/02/10 08:39:45;;;;;;;15.40;5.90;;;;;;;-0.55;42.73;102096.70;104879;1264;61251;-54
2023/02/10 08:42:13;;;;;;;14.80;5.70;;;;;;;-0.49;42.31;102090.63;104840;1264;60321;-52
2023/02/10 08:44:40;;;;;;;13.10;4.50;;;;;;;-0.44;42.47;102088.52;104948;1267;74015;-51
2023/02/10 08:47:10;;;;;;;13.60;4.40;;;;;;;-0.40;41.93;102086.77;104964;1264;71760;-52
2023/02/10 08:49:38;;;;;;;9.20;4.40;;;;;;;-0.40;41.81;102069.02;104936;1267;74773;-53
2023/02/10 08:52:04;;;;;;;10.90;5.40;;;;;;;-0.40;42.04;102069.70;104932;1262;61613;-52
2023/02/10 08:54:32;;;;;;;11.30;4.70;;;;;;;-0.35;42.34;102079.66;104904;1263;61782;-53
2023/02/10 08:56:59;;;;;;;15.60;5.20;;;;;;;-0.26;42.36;102073.05;105011;1263;73945;-54
2023/02/10 08:59:26;;;;;;;8.20;4.00;;;;;;;-0.16;42.45;102075.89;104909;1262;71207;-53
2023/02/10 09:01:53;;;;;;;13.90;6.80;;;;;;;-0.08;41.87;102078.94;105004;1266;73326;-53
2023/02/10 09:04:21;;;;;;;11.70;4.60;;;;;;;-0.02;41.79;102085.43;105063;1267;61423;-54
2023/02/10 09:06:48;;;;;;;14.10;5.10;;;;;;;0.05;42.10;102075.89;104960;1263;61502;-54
2023/02/10 09:09:19;;;;;;;10.80;4.70;;;;;;;0.12;41.89;102072.20;104899;1267;74048;-53
2023/02/10 09:11:46;;;;;;;14.90;5.40;;;;;;;0.16;41.61;102073.55;105322;1262;69940;-53
2023/02/10 09:14:13;;;;;;;13.00;5.80;;;;;;;0.15;41.74;102068.02;105285;1262;73480;-55
2023/02/10 09:16:40;;;;;;;12.60;5.20;;;;;;;0.17;41.97;102060.77;105306;1260;60718;-54
2023/02/10 09:19:08;;;;;;;14.60;5.90;;;;;;;0.26;42.09;102055.49;105179;1259;61284;-53
2023/02/10 09:21:35;;;;;;;12.80;4.90;;;;;;;0.33;42.12;102046.10;105329;1259;72877;-55
2023/02/10 09:24:14;;;;;;;15.30;6.00;;;;;;;0.41;41.73;102041.70;105260;1259;71430;-51
2023/02/10 09:26:42;;;;;;;13.80;5.80;;;;;;;0.46;41.59;102046.83;105097;1263;73347;-54
2023/02/10 09:29:12;;;;;;;22.70;7.00;;;;;;;0.46;41.57;102048.20;105189;1258;60571;-55
2023/02/10 09:31:39;;;;;;;11.80;5.20;;;;;;;0.47;42.00;102040.42;105137;1258;60323;-54
2023/02/10 09:34:06;;;;;;;12.40;5.50;;;;;;;0.54;41.86;102034.64;105169;1262;74184;-54
2023/02/10 09:36:33;;;;;;;12.20;5.40;;;;;;;0.60;41.51;102038.89;105229;1262;71241;-53
2023/02/10 09:39:00;;;;;;;13.50;5.50;;;;;;;0.64;41.45;102043.34;105093;1263;73366;-53
2023/02/10 09:41:36;;;;;;;14.10;5.30;;;;;;;0.67;41.69;102038.45;105486;1259;60830;-53
2023/02/10 09:44:35;;;;;;;13.30;5.70;;;;;;;0.74;41.59;102033.70;105329;1259;61340;-53
2023/02/10 09:47:09;;;;;;;13.40;5.50;;;;;;;0.80;41.18;102035.36;105046;1262;73936;-53
2023/02/10 09:50:04;;;;;;;9.50;5.60;;;;;;;0.78;41.47;102035.04;105318;1259;72290;-53
2023/02/10 09:52:52;;;;;;;11.60;4.70;;;;;;;0.83;41.57;102026.67;105215;1260;73341;-53
2023/02/10 09:55:30;;;;;;;14.60;5.70;;;;;;;0.88;41.39;102024.19;105240;1261;59753;-53
2023/02/10 09:58:14;;;;;;;14.10;6.80;;;;;;;0.90;41.52;102016.40;105164;1257;61443;-54
2023/02/10 10:00:42;;;;;;;13.80;5.20;;;;;;;0.96;41.61;102017.52;105431;1260;74008;-53
2023/02/10 10:03:19;;;;;;;11.40;4.50;;;;;;;1.03;41.46;102015.70;105313;1260;71304;-52
2023/02/10 10:06:17;;;;;;;12.10;4.60;;;;;;;1.08;41.34;102013.04;105725;1262;73504;-53
2023/02/10 10:09:00;;;;;;;16.10;7.70;;;;;;;1.14;41.54;102010.55;105460;1260;59824;-53
2023/02/10 10:11:37;;;;;;;14.30;7.10;;;;;;;1.22;41.47;101999.86;105410;1257;61297;-53
2023/02/10 10:14:04;;;;;;;10.40;6.00;;;;;;;1.32;41.24;101996.96;105337;1260;74031;-53
2023/02/10 10:16:59;;;;;;;12.70;5.50;;;;;;;1.40;41.15;101997.52;105321;1259;71411;-53
2023/02/10 10:19:43;;;;;;;11.70;6.30;;;;;;;1.46;40.89;101998.29;105323;1259;73668;-54
2023/02/10 10:22:38;;;;;;;13.50;5.60;;;;;;;1.52;40.81;101995.25;105157;1259;60471;-52
2023/02/10 10:25:27;;;;;;;11.10;5.90;;;;;;;1.53;40.88;101988.30;105386;1259;61160;-54
2023/02/10 10:28:27;;;;;;;14.60;6.00;;;;;;;1.59;40.97;101991.34;105370;1262;73833;-53
2023/02/10 10:31:06;;;;;;;15.40;6.90;;;;;;;1.66;41.17;101985.84;104960;1259;71542;-54
2023/02/10 10:33:55;;;;;;;9.80;3.90;;;;;;;1.74;40.90;101983.13;105396;1262;73522;-53
2023/02/10 10:36:29;;;;;;;10.30;5.50;;;;;;;1.80;40.76;101971.75;105234;1260;60639;-53
2023/02/10 10:39:36;;;;;;;19.20;6.30;;;;;;;1.85;40.55;101973.05;105374;1258;60922;-51
2023/02/10 10:42:39;;;;;;;10.40;4.80;;;;;;;1.91;40.30;101964.14;105347;1257;73008;-52
2023/02/10 10:45:33;;;;;;;14.00;6.00;;;;;;;2.00;40.34;101959.98;105228;1262;70999;-53
2023/02/10 10:48:03;;;;;;;12.10;5.80;;;;;;;2.10;40.30;101952.86;105387;1260;72700;-52
2023/02/10 10:50:30;;;;;;;12.80;5.70;;;;;;;2.16;39.74;101943.55;105346;1258;60837;-53
2023/02/10 10:52:58;;;;;;;16.80;5.90;;;;;;;2.20;39.76;101935.51;105293;1263;60663;-53
2023/02/10 10:55:34;;;;;;;11.50;4.80;;;;;;;2.25;39.47;101945.82;105191;1263;73993;-54
2023/02/10 10:58:01;;;;;;;10.90;4.70;;;;;;;2.25;39.81;101925.20;105536;1259;71099;-53
2023/02/10 11:00:29;;;;;;;14.20;6.40;;;;;;;2.32;39.95;101923.15;105136;1257;73639;-53
2023/02/10 11:03:02;;;;;;;10.80;5.60;;;;;;;2.42;40.03;101926.59;105310;1261;59703;-51
2023/02/10 11:05:34;;;;;;;12.70;5.60;;;;;;;2.50;39.59;101928.48;105196;1258;60110;-55
2023/02/10 11:08:06;;;;;;;15.60;8.20;;;;;;;2.58;39.46;101930.90;105363;1259;72828;-51
2023/02/10 11:10:49;;;;;;;13.30;5.60;;;;;;;2.64;39.50;101933.91;105278;1259;71356;-53
2023/02/10 11:13:26;;;;;;;11.10;5.10;;;;;;;2.69;39.05;101928.07;105526;1262;73667;-51
2023/02/10 11:16:01;;;;;;;;;;;;;;;2.72;39.16;101922.64;105281;1258;60774;-52
2023/02/10 11:18:28;;;;;;;16.40;5.80;;;;;;;2.76;39.18;101923.77;105305;1257;61066;-52
2023/02/10 11:21:05;;;;;;;11.80;4.70;;;;;;;2.79;39.30;101922.81;105131;1260;74016;-52
2023/02/10 11:23:31;;;;;;;12.80;5.60;;;;;;;2.86;38.92;101921.64;105187;1257;70102;-49
2023/02/10 11:25:58;;;;;;;10.70;5.50;;;;;;;2.91;39.11;101915.80;105108;1258;73651;-49
2023/02/10 11:28:27;;;;;;;13.10;6.30;;;;;;;2.98;38.97;101917.36;105384;1259;60276;-51
2023/02/10 11:30:56;;;;;;;11.40;4.40;;;;;;;3.02;38.73;101907.90;105541;1259;60803;-51
2023/02/10 11:33:27;;;;;;;12.70;4.90;;;;;;;3.06;38.38;101904.35;105351;1259;73858;-52
2023/02/10 11:36:02;;;;;;;12.30;5.60;;;;;;;3.09;38.19;101907.39;105227;1259;71165;-52
2023/02/10 11:38:29;;;;;;;9.30;5.70;;;;;;;3.09;38.58;101906.02;105156;1258;73422;-51
2023/02/10 11:40:57;;;;;;;11.60;5.60;;;;;;;3.10;38.51;101902.16;105300;1262;59648;-50
2023/02/10 11:43:30;;;;;;;10.10;4.40;;;;;;;3.13;38.41;101899.14;105098;1259;60553;-50
2023/02/10 11:45:59;;;;;;;11.10;4.90;;;;;;;3.16;38.40;101892.98;105070;1258;72805;-51
2023/02/10 11:48:27;;;;;;;11.00;5.10;;;;;;;3.22;38.80;101895.27;105453;1257;71357;-50
2023/02/10 11:51:15;;;;;;;11.60;5.50;;;;;;;3.30;38.75;101883.27;107947;1259;73616;-50
2023/02/10 11:53:43;;;;;;;9.70;4.40;;;;;;;3.42;38.61;101880.71;106700;1256;60451;-50
2023/02/10 11:59:50;;;;;;;13.10;5.20;;;;;;;3.51;38.19;101877.17;108886;1258;66439;-51
2023/02/10 12:02:42;;;;;;;13.70;5.20;;;;;;;3.59;38.24;101879.41;108852;1258;71208;-50
2023/02/10 12:05:38;;;;;;;11.60;5.00;;;;;;;3.64;37.71;101877.52;108836;1259;73847;-51
2023/02/10 12:08:10;;;;;;;9.10;3.80;;;;;;;3.71;37.67;101878.38;108699;1259;59401;-51
2023/02/10 12:10:51;;;;;;;11.70;5.60;;;;;;;3.80;37.34;101874.67;106661;1258;60474;-51
2023/02/10 12:13:46;;;;;;;12.00;6.00;;;;;;;3.87;37.60;101871.69;104936;1263;74839;-50
2023/02/10 12:16:32;;;;;;;11.90;5.10;;;;;;;3.96;37.36;101868.32;105169;1262;71267;-52
2023/02/10 12:19:13;;;;;;;12.50;5.90;;;;;;;4.03;37.14;101864.65;105202;1260;72979;-50
2023/02/10 12:22:07;;;;;;;12.50;5.50;;;;;;;4.08;37.35;101859.61;105331;1260;60457;-51
2023/02/10 12:24:55;;;;;;;11.30;5.70;;;;;;;4.16;36.92;101860.63;105109;1259;60583;-51
2023/02/10 12:27:36;;;;;;;13.90;5.00;;;;;;;4.17;36.54;101862.48;105302;1262;74849;-51
2023/02/10 12:30:37;;;;;;;15.20;10.80;;;;;;;4.15;36.98;101859.23;105084;1259;71179;-52
2023/02/10 12:33:42;;;;;;;15.30;10.30;;;;;;;4.24;37.28;101851.70;105058;1259;73333;-50
2023/02/10 12:36:25;;;;;;;12.30;5.50;;;;;;;4.42;37.00;101847.15;105123;1259;60598;-50
2023/02/10 12:39:04;;;;;;;11.00;4.30;;;;;;;4.58;36.68;101840.75;105321;1259;60565;-51
2023/02/10 12:41:43;;;;;;;11.80;5.80;;;;;;;4.68;36.54;101836.45;105061;1262;73447;-51
2023/02/10 12:44:22;;;;;;;11.60;5.50;;;;;;;4.75;36.29;101839.16;105112;1258;71107;-50
2023/02/10 12:47:10;;;;;;;18.90;11.50;;;;;;;4.80;36.13;101825.42;104921;1261;73554;-53
2023/02/10 12:49:45;;;;;;;9.10;4.60;;;;;;;4.86;36.39;101821.59;105010;1259;60550;-63
2023/02/10 12:52:44;;;;;;;11.50;5.00;;;;;;;4.93;36.32;101817.04;104972;1261;60493;-66
2023/02/10 12:55:23;;;;;;;12.00;5.80;;;;;;;5.04;36.29;101817.51;105214;1259;73827;-67
2023/02/10 12:57:57;;;;;;;11.70;6.20;;;;;;;5.28;35.89;101818.27;105035;1258;69971;-63
2023/02/10 13:00:35;;;;;;;13.40;7.10;;;;;;;5.42;35.68;101820.36;105440;1260;72702;-65
2023/02/10 13:03:14;;;;;;;11.20;6.00;;;;;;;5.48;35.69;101813.91;105308;1259;60574;-67
2023/02/10 13:05:46;;;;;;;17.90;11.20;;;;;;;5.44;35.69;101809.70;105321;1258;61284;-67
2023/02/10 13:08:39;;;;;;;12.90;5.90;;;;;;;5.30;36.03;101818.89;105126;1258;73592;-65
2023/02/10 13:11:32;;;;;;;19.30;11.20;;;;;;;5.16;36.05;101821.10;105248;1263;70417;-68
2023/02/10 13:14:24;;;;;;;9.60;4.60;;;;;;;4.91;36.44;101819.67;104885;1257;74542;-66
2023/02/10 13:16:57;;;;;;;12.30;5.70;;;;;;;4.69;36.58;101815.90;105146;1259;60567;-65
2023/02/10 13:19:43;;;;;;;17.00;11.40;;;;;;;4.45;36.88;101810.23;105304;1259;61838;-68
2023/02/10 13:22:32;;;;;;;12.80;5.70;;;;;;;4.30;37.45;101811.23;105176;1259;74600;-64
2023/02/10 13:24:58;;;;;;;8.60;4.80;;;;;;;4.43;37.32;101810.96;105351;1261;71279;-64
2023/02/10 13:27:32;;;;;;;11.20;5.90;;;;;;;4.87;36.91;101801.39;105300;1260;72317;-63
2023/02/10 13:30:02;;;;;;;15.70;6.30;;;;;;;4.95;36.89;101807.05;105309;1262;60445;-66
2023/02/10 13:32:48;;;;;;;16.40;11.20;;;;;;;4.94;36.81;101803.76;105186;1259;61021;-63
2023/02/10 13:35:16;;;;;;;12.20;6.40;;;;;;;4.89;37.21;101794.88;105279;1262;74893;-65
2023/02/10 13:37:46;;;;;;;12.00;5.20;;;;;;;4.85;37.06;101784.59;105308;1259;71054;-64
2023/02/10 13:40:20;;;;;;;12.10;5.50;;;;;;;4.73;37.29;101770.58;105197;1261;72672;-69
2023/02/10 13:42:58;;;;;;;15.90;10.80;;;;;;;4.64;37.23;101766.49;105285;1262;60414;-68
2023/02/10 13:45:29;;;;;;;11.10;5.80;;;;;;;4.63;37.35;101766.38;105465;1259;60576;-70
2023/02/10 13:48:03;;;;;;;12.20;6.00;;;;;;;5.30;36.87;101767.38;105273;1258;74059;-67
2023/02/10 13:50:41;;;;;;;13.70;7.40;;;;;;;6.21;35.67;101769.91;105163;1263;71690;-68
2023/02/10 13:53:35;;;;;;;17.80;11.10;;;;;;;7.29;34.59;101777.11;105303;1259;72679;-67
2023/02/10 13:56:18;;;;;;;18.20;12.80;;;;;;;7.77;33.03;101775.88;105520;1258;60453;-67
2023/02/10 13:58:50;;;;;;;17.50;12.50;;;;;;;8.27;32.48;101784.52;105126;1259;61240;-64
2023/02/10 14:01:39;;;;;;;15.80;11.60;;;;;;;8.77;31.97;101787.73;105336;1262;74801;-64
2023/02/10 14:04:47;;;;;;;18.80;12.10;;;;;;;9.30;31.40;101793.77;105274;1259;71590;-65
2023/02/10 14:07:17;;;;;;;;;;;;;;;9.30;30.39;101804.84;105430;1258;72740;-65
2023/02/10 14:09:46;;;;;;;21.60;12.90;;;;;;;8.79;30.83;101796.91;105340;1259;60565;-64
2023/02/10 14:12:26;;;;;;;19.30;12.90;;;;;;;8.09;31.64;101801.11;105363;1260;61543;-65
2023/02/10 14:14:54;;;;;;;18.80;12.90;;;;;;;7.30;32.52;101806.03;105357;1257;75222;-67
2023/02/10 14:17:28;;;;;;;17.40;13.10;;;;;;;6.56;33.62;101806.89;105237;1257;71710;-66
2023/02/10 14:19:55;;;;;;;12.30;7.20;;;;;;;6.03;34.58;101800.05;105290;1261;73082;-68
2023/02/10 14:22:29;;;;;;;16.00;7.20;;;;;;;5.87;35.16;101789.86;105220;1259;60627;-66
2023/02/10 14:24:59;;;;;;;19.70;13.00;;;;;;;5.79;35.55;101790.48;105099;1260;60544;-66
2023/02/10 14:27:27;;;;;;;20.60;14.50;;;;;;;5.59;35.88;101789.83;105291;1261;73968;-68
2023/02/10 14:30:05;;;;;;;18.20;13.20;;;;;;;5.33;36.14;101790.61;105369;1259;71264;-64
2023/02/10 14:32:33;;;;;;;12.90;5.80;;;;;;;5.13;36.69;101782.58;105390;1262;73455;-64
2023/02/10 14:35:03;;;;;;;13.60;6.20;;;;;;;4.93;37.01;101774.06;105165;1259;60520;-64
2023/02/10 14:37:30;;;;;;;20.80;13.90;;;;;;;4.71;37.28;101782.45;105221;1259;61458;-65
2023/02/10 14:39:59;;;;;;;11.40;5.40;;;;;;;4.51;37.73;101783.81;105154;1262;74583;-65
2023/02/10 14:42:29;;;;;;;20.70;14.20;;;;;;;4.30;37.92;101788.64;105785;1258;70237;-66
2023/02/10 14:45:00;;;;;;;13.70;5.90;;;;;;;4.04;38.33;101780.56;105679;1262;73649;-64
2023/02/10 14:47:32;;;;;;;18.00;7.30;;;;;;;3.80;38.84;101779.70;105562;1262;60384;-66
2023/02/10 14:49:59;;;;;;;20.10;14.70;;;;;;;3.58;39.34;101777.90;105547;1259;60570;-66
2023/02/10 14:52:28;;;;;;;11.20;5.80;;;;;;;3.38;39.77;101785.93;105427;1260;74994;-68
2023/02/10 14:55:34;;;;;;;15.00;8.30;;;;;;;3.18;40.09;101790.30;105391;1262;70347;-65
2023/02/10 14:58:11;;;;;;;21.70;15.00;;;;;;;3.00;40.48;101783.64;105431;1260;65124;-65
2023/02/10 15:00:40;;;;;;;24.60;7.50;;;;;;;2.81;40.80;101783.95;105190;1259;60778;-69
2023/02/10 15:03:10;;;;;;;12.90;5.80;;;;;;;2.66;41.13;101782.42;105728;1259;61778;-69
2023/02/10 15:05:39;;;;;;;15.00;7.30;;;;;;;2.51;41.52;101790.75;105720;1263;74713;-69
2023/02/10 15:08:07;;;;;;;10.80;6.00;;;;;;;2.38;41.60;101789.52;105303;1259;71204;-68
2023/02/10 15:10:39;;;;;;;11.00;5.50;;;;;;;2.26;41.91;101788.05;105372;1257;73833;-69
2023/02/10 15:13:07;;;;;;;13.70;6.60;;;;;;;2.16;42.13;101788.80;105934;1257;60451;-69
2023/02/10 15:15:35;;;;;;;11.10;5.50;;;;;;;2.05;42.28;101791.10;105682;1258;60457;-67
2023/02/10 15:18:08;;;;;;;12.70;6.30;;;;;;;1.96;42.54;101787.16;105768;1262;74835;-67
2023/02/10 15:20:36;;;;;;;15.20;6.70;;;;;;;1.87;42.86;101790.45;105813;1257;62307;-68
2023/02/10 15:23:14;;;;;;;16.50;6.90;;;;;;;1.79;43.08;101787.85;105680;1259;73679;-68
2023/02/10 15:26:04;;;;;;;13.30;6.40;;;;;;;1.72;43.18;101793.36;105647;1259;60524;-69
2023/02/10 15:28:31;;;;;;;14.30;5.50;;;;;;;1.63;43.26;101793.02;105494;1257;60446;-68
2023/02/10 15:31:06;;;;;;;12.90;5.90;;;;;;;1.55;43.48;101792.49;105381;1260;73753;-67
2023/02/10 15:33:56;;;;;;;19.80;7.90;;;;;;;1.46;43.71;101791.95;105494;1262;66301;-67
2023/02/10 15:36:30;;;;;;;16.30;7.70;;;;;;;1.39;43.85;101796.26;105340;1258;64836;-67
2023/02/10 15:38:57;;;;;;;13.20;6.00;;;;;;;1.30;44.09;101805.75;105433;1259;60376;-67
2023/02/10 15:41:29;;;;;;;15.60;7.40;;;;;;;1.21;44.23;101804.02;105333;1262;61695;-66
2023/02/10 15:43:56;;;;;;;13.30;5.70;;;;;;;1.13;44.29;101805.38;105534;1259;74699;-69
2023/02/10 15:46:25;;;;;;;17.40;7.10;;;;;;;1.08;44.59;101812.55;105351;1259;71193;-66
2023/02/10 15:48:52;;;;;;;15.00;6.80;;;;;;;1.02;44.66;101813.70;105462;1258;73397;-67
2023/02/10 15:51:24;;;;;;;18.40;8.20;;;;;;;0.97;44.86;101814.31;105099;1261;60553;-68
2023/02/10 15:53:54;;;;;;;20.00;9.00;;;;;;;0.90;45.13;101820.47;105089;1260;61026;-69
2023/02/10 15:56:24;;;;;;;13.70;6.90;;;;;;;0.86;45.21;101821.22;105404;1259;74842;-68
2023/02/10 15:58:55;;;;;;;15.70;8.10;;;;;;;0.82;45.28;101823.55;105230;1259;71293;-68
2023/02/10 16:01:22;;;;;;;14.60;6.10;;;;;;;0.77;45.45;101822.06;105074;1263;73641;-68
2023/02/10 16:03:49;;;;;;;13.00;5.50;;;;;;;0.72;45.53;101822.48;105308;1259;60493;-67
2023/02/10 16:06:17;;;;;;;13.50;6.70;;;;;;;0.69;45.69;101828.05;105383;1258;61240;-67
2023/02/10 16:08:44;;;;;;;14.20;6.00;;;;;;;0.65;45.85;101826.21;105470;1258;74493;-67
2023/02/10 16:11:30;;;;;;;16.00;6.70;;;;;;;0.61;45.92;101825.93;105373;1254;64096;-65
2023/02/10 16:14:14;;;;;;;14.20;5.70;;;;;;;0.58;46.06;101823.39;105336;1259;65025;-71
2023/02/10 16:16:45;;;;;;;12.30;6.40;;;;;;;0.54;46.23;101822.41;105427;1256;61844;-65
2023/02/10 16:19:14;;;;;;;15.40;5.80;;;;;;;0.52;46.35;101822.45;105378;1259;61555;-65
2023/02/10 16:21:41;;;;;;;10.30;5.40;;;;;;;0.49;46.37;101817.48;105541;1260;74634;-68
2023/02/10 16:24:15;;;;;;;13.90;6.40;;;;;;;0.46;46.49;101817.88;105365;1254;71361;-68
2023/02/10 16:26:44;;;;;;;15.30;6.30;;;;;;;0.43;46.63;101819.30;105773;1258;73589;-66
2023/02/10 16:29:15;;;;;;;12.90;5.40;;;;;;;0.41;46.80;101827.09;105423;1256;60456;-66
2023/02/10 16:31:43;;;;;;;13.60;6.70;;;;;;;0.35;46.87;101823.21;105486;1256;61294;-69
2023/02/10 16:34:10;;;;;;;12.10;5.70;;;;;;;0.31;46.96;101822.92;105532;1255;73759;-67
2023/02/10 16:36:38;;;;;;;13.40;6.00;;;;;;;0.28;47.08;101828.66;105672;1256;70694;-66
2023/02/10 16:39:13;;;;;;;14.10;5.00;;;;;;;0.23;47.17;101825.96;105510;1258;73620;-67
2023/02/10 16:41:40;;;;;;;17.90;8.00;;;;;;;0.18;47.45;101826.39;105940;1254;60659;-68
2023/02/10 16:44:07;;;;;;;15.90;6.20;;;;;;;0.15;47.48;101824.52;105964;1260;60391;-68
2023/02/10 16:46:34;;;;;;;12.90;6.90;;;;;;;0.13;47.63;101824.73;105664;1258;74984;-69
2023/02/10 16:49:02;;;;;;;14.10;6.90;;;;;;;0.11;47.68;101831.99;105436;1256;71294;-68
2023/02/10 16:51:29;;;;;;;13.30;6.50;;;;;;;0.07;47.96;101832.23;105456;1260;73744;-66
2023/02/10 16:53:56;;;;;;;14.90;7.50;;;;;;;0.03;47.96;101831.94;105798;1256;61744;-66
2023/02/10 16:56:23;;;;;;;14.00;6.70;;;;;;;0.01;48.02;101840.58;105932;1254;61461;-65
2023/02/10 16:58:50;;;;;;;13.40;6.40;;;;;;;-0.01;48.24;101840.78;105801;1258;73978;-66
2023/02/10 17:01:17;;;;;;;14.40;6.20;;;;;;;-0.03;48.17;101837.17;105775;1256;71115;-66
2023/02/10 17:03:44;;;;;;;14.60;6.50;;;;;;;-0.04;48.26;101841.00;105621;1256;73941;-66
2023/02/10 17:06:19;;;;;;;13.20;6.20;;;;;;;-0.08;48.23;101835.34;105726;1258;60470;-67
2023/02/10 17:08:46;;;;;;;14.80;6.40;;;;;;;-0.09;48.45;101833.11;105880;1256;61258;-67
2023/02/10 17:11:13;;;;;;;15.80;7.90;;;;;;;-0.09;48.53;101835.02;105929;1258;74979;-68
2023/02/10 17:13:40;;;;;;;13.80;5.50;;;;;;;-0.10;48.50;101837.79;105884;1254;71251;-66
2023/02/10 17:16:16;;;;;;;16.20;6.90;;;;;;;-0.10;48.52;101840.20;105738;1258;73660;-66
2023/02/10 17:18:43;;;;;;;16.80;8.80;;;;;;;-0.12;48.68;101838.34;105318;1258;60469;-64
2023/02/10 17:21:10;;;;;;;14.30;7.20;;;;;;;-0.14;48.60;101840.09;105393;1258;61268;-65
2023/02/10 17:23:37;;;;;;;15.90;7.50;;;;;;;-0.18;48.80;101846.66;105557;1258;74695;-66
2023/02/10 17:26:04;;;;;;;13.40;6.80;;;;;;;-0.22;48.94;101845.51;105254;1256;71216;-64
2023/02/10 17:28:31;;;;;;;18.10;7.30;;;;;;;-0.24;48.94;101853.30;105895;1258;72386;-65
2023/02/10 17:30:58;;;;;;;17.20;7.40;;;;;;;-0.27;48.97;101853.67;105811;1255;60841;-66
2023/02/10 17:33:27;;;;;;;15.30;7.10;;;;;;;-0.28;49.08;101865.94;105872;1256;61196;-65
2023/02/10 17:35:54;;;;;;;16.30;7.40;;;;;;;-0.31;49.18;101865.28;105854;1258;74574;-69
2023/02/10 17:41:07;;;;;;;15.10;6.90;;;;;;;-0.34;49.25;101868.60;105897;1258;64995;-66
2023/02/10 17:43:34;;;;;;;14.50;7.10;;;;;;;-0.35;49.29;101869.47;105914;1256;60451;-67
2023/02/10 17:46:02;;;;;;;13.60;7.20;;;;;;;-0.37;49.45;101870.33;105837;1258;62250;-65
2023/02/10 17:48:29;;;;;;;13.10;6.40;;;;;;;-0.38;49.43;101865.88;105849;1258;74685;-68
2023/02/10 17:51:03;;;;;;;17.00;7.50;;;;;;;-0.41;49.47;101867.27;105813;1256;71258;-68
2023/02/10 17:53:30;;;;;;;21.50;7.40;;;;;;;-0.43;49.56;101867.13;105948;1259;73678;-66